sensor_id;sensor_type;location;lat;lon;timestamp;temperature;humidity
11666;DHT22;5889;51.350;6.708;2023-04-25T00:01:28;7.00;99.90
11666;DHT22;5889;51.350;6.708;2023-04-25T00:03:55;7.00;99.90
11666;DHT22;5889;51.350;6.708;2023-04-25T00:06:23;7.00;99.90
11666;DHT22;5889;51.350;6.708;2023-04-25T00:08:52;7.00;99.90
11666;DHT22;5889;51.350;6.708;2023-04-25T00:11:19;7.00;99.90
11666;DHT22;5889;51.350;6.708;2023-04-25T00:13:47;7.10;99.90
11666;DHT22;5889;51.350;6.708;2023-04-25T00:16:15;7.10;99.90
11666;DHT22;5889;51.350;6.708;2023-04-25T00:18:43;7.10;99.90
11666;DHT22;5889;51.350;6.708;2023-04-25T00:21:12;7.10;99.90
11666;DHT22;5889;51.350;6.708;2023-04-25T00:23:39;7.20;99.90
11666;DHT22;5889;51.350;6.708;2023-04-25T00:26:07;7.20;99.90
11666;DHT22;5889;51.350;6.708;2023-04-25T00:28:35;7.20;99.90
11666;DHT22;5889;51.350;6.708;2023-04-25T00:31:03;7.20;99.90
11666;DHT22;5889;51.350;6.708;2023-04-25T00:33:31;7.20;99.90
11666;DHT22;5889;51.350;6.708;2023-04-25T00:36:00;7.20;99.90
11666;DHT22;5889;51.350;6.708;2023-04-25T00:38:28;7.20;99.90
11666;DHT22;5889;51.350;6.708;2023-04-25T00:40:55;7.20;99.90
11666;DHT22;5889;51.350;6.708;2023-04-25T00:43:24;7.20;99.90
11666;DHT22;5889;51.350;6.708;2023-04-25T00:45:53;7.20;99.90
11666;DHT22;5889;51.350;6.708;2023-04-25T00:48:23;7.20;99.90
11666;DHT22;5889;51.350;6.708;2023-04-25T00:50:52;7.20;99.90
11666;DHT22;5889;51.350;6.708;2023-04-25T00:53:23;7.20;99.90
11666;DHT22;5889;51.350;6.708;2023-04-25T00:55:52;7.30;99.90
11666;DHT22;5889;51.350;6.708;2023-04-25T00:58:21;7.30;99.90
11666;DHT22;5889;51.350;6.708;2023-04-25T01:00:51;7.30;99.90
11666;DHT22;5889;51.350;6.708;2023-04-25T01:03:18;7.20;99.90
11666;DHT22;5889;51.350;6.708;2023-04-25T01:05:46;7.30;99.90
11666;DHT22;5889;51.350;6.708;2023-04-25T01:08:14;7.20;99.90
11666;DHT22;5889;51.350;6.708;2023-04-25T01:10:43;7.30;99.90
11666;DHT22;5889;51.350;6.708;2023-04-25T01:13:10;7.30;99.90
11666;DHT22;5889;51.350;6.708;2023-04-25T01:15:38;7.30;99.90
11666;DHT22;5889;51.350;6.708;2023-04-25T01:18:06;7.30;99.90
11666;DHT22;5889;51.350;6.708;2023-04-25T01:20:34;7.30;99.90
11666;DHT22;5889;51.350;6.708;2023-04-25T01:23:03;7.30;99.90
11666;DHT22;5889;51.350;6.708;2023-04-25T01:25:30;7.30;99.90
11666;DHT22;5889;51.350;6.708;2023-04-25T01:27:58;7.30;99.90
11666;DHT22;5889;51.350;6.708;2023-04-25T01:30:26;7.30;99.90
11666;DHT22;5889;51.350;6.708;2023-04-25T01:32:56;7.30;99.90
11666;DHT22;5889;51.350;6.708;2023-04-25T01:35:24;7.30;99.90
11666;DHT22;5889;51.350;6.708;2023-04-25T01:37:52;7.30;99.90
11666;DHT22;5889;51.350;6.708;2023-04-25T01:40:21;7.20;99.90
11666;DHT22;5889;51.350;6.708;2023-04-25T01:42:51;7.20;99.90
11666;DHT22;5889;51.350;6.708;2023-04-25T01:45:18;7.20;99.90
11666;DHT22;5889;51.350;6.708;2023-04-25T01:47:45;7.10;99.90
11666;DHT22;5889;51.350;6.708;2023-04-25T01:50:16;7.10;99.90
11666;DHT22;5889;51.350;6.708;2023-04-25T01:52:44;7.10;99.90
11666;DHT22;5889;51.350;6.708;2023-04-25T01:55:11;7.10;99.90
11666;DHT22;5889;51.350;6.708;2023-04-25T01:57:40;7.10;99.90
11666;DHT22;5889;51.350;6.708;2023-04-25T02:00:08;7.10;99.90
11666;DHT22;5889;51.350;6.708;2023-04-25T02:02:36;7.10;99.90
11666;DHT22;5889;51.350;6.708;2023-04-25T02:05:04;7.10;99.90
11666;DHT22;5889;51.350;6.708;2023-04-25T02:07:35;7.10;99.90
11666;DHT22;5889;51.350;6.708;2023-04-25T02:10:03;7.10;99.90
11666;DHT22;5889;51.350;6.708;2023-04-25T02:12:31;7.10;99.90
11666;DHT22;5889;51.350;6.708;2023-04-25T02:15:00;7.10;99.90
11666;DHT22;5889;51.350;6.708;2023-04-25T02:17:27;7.10;99.90
11666;DHT22;5889;51.350;6.708;2023-04-25T02:19:55;7.10;99.90
11666;DHT22;5889;51.350;6.708;2023-04-25T02:22:22;7.10;99.90
11666;DHT22;5889;51.350;6.708;2023-04-25T02:24:49;7.10;99.90
11666;DHT22;5889;51.350;6.708;2023-04-25T02:27:16;7.10;99.90
11666;DHT22;5889;51.350;6.708;2023-04-25T02:29:44;7.00;99.90
11666;DHT22;5889;51.350;6.708;2023-04-25T02:32:13;6.90;99.90
11666;DHT22;5889;51.350;6.708;2023-04-25T02:34:40;6.90;99.90
11666;DHT22;5889;51.350;6.708;2023-04-25T02:37:08;6.90;99.90
11666;DHT22;5889;51.350;6.708;2023-04-25T02:39:35;6.90;99.90
11666;DHT22;5889;51.350;6.708;2023-04-25T02:42:03;6.90;99.90
11666;DHT22;5889;51.350;6.708;2023-04-25T02:44:30;6.80;99.90
11666;DHT22;5889;51.350;6.708;2023-04-25T02:46:58;6.80;99.90
11666;DHT22;5889;51.350;6.708;2023-04-25T02:49:26;6.80;99.90
11666;DHT22;5889;51.350;6.708;2023-04-25T02:51:53;6.70;99.90
11666;DHT22;5889;51.350;6.708;2023-04-25T02:54:20;6.70;99.90
11666;DHT22;5889;51.350;6.708;2023-04-25T02:56:47;6.60;99.90
11666;DHT22;5889;51.350;6.708;2023-04-25T02:59:15;6.60;99.90
11666;DHT22;5889;51.350;6.708;2023-04-25T03:01:42;6.50;99.90
11666;DHT22;5889;51.350;6.708;2023-04-25T03:04:09;6.50;99.90
11666;DHT22;5889;51.350;6.708;2023-04-25T03:06:38;6.40;99.90
11666;DHT22;5889;51.350;6.708;2023-04-25T03:09:05;6.30;99.90
11666;DHT22;5889;51.350;6.708;2023-04-25T03:11:33;6.30;99.90
11666;DHT22;5889;51.350;6.708;2023-04-25T03:14:00;6.30;99.90
11666;DHT22;5889;51.350;6.708;2023-04-25T03:16:28;6.30;99.90
11666;DHT22;5889;51.350;6.708;2023-04-25T03:18:55;6.30;99.90
11666;DHT22;5889;51.350;6.708;2023-04-25T03:21:23;6.30;99.90
11666;DHT22;5889;51.350;6.708;2023-04-25T03:23:53;6.30;99.90
11666;DHT22;5889;51.350;6.708;2023-04-25T03:26:21;6.30;99.90
11666;DHT22;5889;51.350;6.708;2023-04-25T03:28:48;6.30;99.90
11666;DHT22;5889;51.350;6.708;2023-04-25T03:31:16;6.30;99.90
11666;DHT22;5889;51.350;6.708;2023-04-25T03:33:43;6.20;99.90
11666;DHT22;5889;51.350;6.708;2023-04-25T03:36:11;6.20;99.90
11666;DHT22;5889;51.350;6.708;2023-04-25T03:38:38;6.20;99.90
11666;DHT22;5889;51.350;6.708;2023-04-25T03:41:09;6.20;99.90
11666;DHT22;5889;51.350;6.708;2023-04-25T03:43:37;6.10;99.90
11666;DHT22;5889;51.350;6.708;2023-04-25T03:46:04;6.10;99.90
11666;DHT22;5889;51.350;6.708;2023-04-25T03:48:31;6.10;99.90
11666;DHT22;5889;51.350;6.708;2023-04-25T03:50:58;6.10;99.90
11666;DHT22;5889;51.350;6.708;2023-04-25T03:53:26;6.10;99.90
11666;DHT22;5889;51.350;6.708;2023-04-25T03:55:52;6.10;99.90
11666;DHT22;5889;51.350;6.708;2023-04-25T03:58:21;6.10;99.90
11666;DHT22;5889;51.350;6.708;2023-04-25T04:00:48;6.10;99.90
11666;DHT22;5889;51.350;6.708;2023-04-25T04:03:15;6.10;99.90
11666;DHT22;5889;51.350;6.708;2023-04-25T04:05:42;6.00;99.90
11666;DHT22;5889;51.350;6.708;2023-04-25T04:08:10;6.00;99.90
11666;DHT22;5889;51.350;6.708;2023-04-25T04:10:39;5.90;99.90
11666;DHT22;5889;51.350;6.708;2023-04-25T04:13:09;6.00;99.90
11666;DHT22;5889;51.350;6.708;2023-04-25T04:15:38;6.00;99.90
11666;DHT22;5889;51.350;6.708;2023-04-25T04:21:19;6.00;99.90
11666;DHT22;5889;51.350;6.708;2023-04-25T04:23:47;5.90;99.90
11666;DHT22;5889;51.350;6.708;2023-04-25T04:26:15;5.80;99.90
11666;DHT22;5889;51.350;6.708;2023-04-25T04:28:43;5.80;99.90
11666;DHT22;5889;51.350;6.708;2023-04-25T04:31:12;5.80;99.90
11666;DHT22;5889;51.350;6.708;2023-04-25T04:33:42;5.80;99.90
11666;DHT22;5889;51.350;6.708;2023-04-25T04:36:11;5.70;99.90
11666;DHT22;5889;51.350;6.708;2023-04-25T04:38:39;5.60;99.90
11666;DHT22;5889;51.350;6.708;2023-04-25T04:41:09;5.50;99.90
11666;DHT22;5889;51.350;6.708;2023-04-25T04:43:38;5.50;99.90
11666;DHT22;5889;51.350;6.708;2023-04-25T04:49:26;5.40;99.90
11666;DHT22;5889;51.350;6.708;2023-04-25T04:52:10;5.40;99.90
11666;DHT22;5889;51.350;6.708;2023-04-25T04:54:45;5.30;99.90
11666;DHT22;5889;51.350;6.708;2023-04-25T04:57:19;5.30;99.90
11666;DHT22;5889;51.350;6.708;2023-04-25T04:59:48;5.30;99.90
11666;DHT22;5889;51.350;6.708;2023-04-25T05:02:17;5.30;99.90
11666;DHT22;5889;51.350;6.708;2023-04-25T05:04:56;5.30;99.90
11666;DHT22;5889;51.350;6.708;2023-04-25T05:07:29;5.40;99.90
11666;DHT22;5889;51.350;6.708;2023-04-25T05:09:57;5.40;99.90
11666;DHT22;5889;51.350;6.708;2023-04-25T05:12:29;5.50;99.90
11666;DHT22;5889;51.350;6.708;2023-04-25T05:15:01;5.50;99.90
11666;DHT22;5889;51.350;6.708;2023-04-25T05:17:32;5.60;99.90
11666;DHT22;5889;51.350;6.708;2023-04-25T05:20:02;5.60;99.90
11666;DHT22;5889;51.350;6.708;2023-04-25T05:22:33;5.70;99.90
11666;DHT22;5889;51.350;6.708;2023-04-25T05:25:11;5.70;99.90
11666;DHT22;5889;51.350;6.708;2023-04-25T05:27:56;5.70;99.90
11666;DHT22;5889;51.350;6.708;2023-04-25T05:30:27;5.70;99.90
11666;DHT22;5889;51.350;6.708;2023-04-25T05:32:56;5.70;99.90
11666;DHT22;5889;51.350;6.708;2023-04-25T05:35:24;5.70;99.90
11666;DHT22;5889;51.350;6.708;2023-04-25T05:37:51;5.80;99.90
11666;DHT22;5889;51.350;6.708;2023-04-25T05:40:18;5.90;99.90
11666;DHT22;5889;51.350;6.708;2023-04-25T05:42:45;5.90;99.90
11666;DHT22;5889;51.350;6.708;2023-04-25T05:48:02;6.10;99.90
11666;DHT22;5889;51.350;6.708;2023-04-25T05:50:32;6.10;99.90
11666;DHT22;5889;51.350;6.708;2023-04-25T05:53:30;6.20;99.90
11666;DHT22;5889;51.350;6.708;2023-04-25T06:02:08;6.10;99.90
11666;DHT22;5889;51.350;6.708;2023-04-25T06:04:35;6.20;99.90
11666;DHT22;5889;51.350;6.708;2023-04-25T06:49:08;6.80;99.90
11666;DHT22;5889;51.350;6.708;2023-04-25T06:51:35;6.90;99.90
11666;DHT22;5889;51.350;6.708;2023-04-25T06:54:02;6.90;99.90
11666;DHT22;5889;51.350;6.708;2023-04-25T06:56:31;6.90;99.90
11666;DHT22;5889;51.350;6.708;2023-04-25T06:58:58;6.90;99.90
11666;DHT22;5889;51.350;6.708;2023-04-25T07:01:26;6.90;99.90
11666;DHT22;5889;51.350;6.708;2023-04-25T07:03:56;6.90;99.90
11666;DHT22;5889;51.350;6.708;2023-04-25T07:06:39;6.90;99.90
11666;DHT22;5889;51.350;6.708;2023-04-25T07:09:08;6.90;99.90
11666;DHT22;5889;51.350;6.708;2023-04-25T07:11:35;6.90;99.90
11666;DHT22;5889;51.350;6.708;2023-04-25T07:14:02;6.90;99.90
11666;DHT22;5889;51.350;6.708;2023-04-25T07:16:29;7.10;99.90
11666;DHT22;5889;51.350;6.708;2023-04-25T07:18:56;7.20;99.90
11666;DHT22;5889;51.350;6.708;2023-04-25T07:21:23;7.30;99.90
11666;DHT22;5889;51.350;6.708;2023-04-25T07:23:51;7.30;99.90
11666;DHT22;5889;51.350;6.708;2023-04-25T07:26:18;7.20;99.90
11666;DHT22;5889;51.350;6.708;2023-04-25T07:28:45;7.20;99.90
11666;DHT22;5889;51.350;6.708;2023-04-25T07:31:35;7.30;99.90
11666;DHT22;5889;51.350;6.708;2023-04-25T07:34:02;7.40;99.90
11666;DHT22;5889;51.350;6.708;2023-04-25T07:36:29;7.50;99.90
11666;DHT22;5889;51.350;6.708;2023-04-25T07:38:57;7.60;99.90
11666;DHT22;5889;51.350;6.708;2023-04-25T07:41:24;7.70;99.90
11666;DHT22;5889;51.350;6.708;2023-04-25T07:43:51;7.70;99.90
11666;DHT22;5889;51.350;6.708;2023-04-25T07:46:18;7.70;99.90
11666;DHT22;5889;51.350;6.708;2023-04-25T07:48:46;7.70;99.90
11666;DHT22;5889;51.350;6.708;2023-04-25T07:51:13;7.80;99.90
11666;DHT22;5889;51.350;6.708;2023-04-25T07:53:39;7.90;99.90
11666;DHT22;5889;51.350;6.708;2023-04-25T07:56:15;7.90;99.90
11666;DHT22;5889;51.350;6.708;2023-04-25T07:58:42;7.90;99.90
11666;DHT22;5889;51.350;6.708;2023-04-25T08:01:10;8.00;99.90
11666;DHT22;5889;51.350;6.708;2023-04-25T08:03:37;8.20;99.90
11666;DHT22;5889;51.350;6.708;2023-04-25T08:06:04;8.10;99.90
11666;DHT22;5889;51.350;6.708;2023-04-25T08:08:31;8.30;99.90
11666;DHT22;5889;51.350;6.708;2023-04-25T08:10:58;8.30;99.90
11666;DHT22;5889;51.350;6.708;2023-04-25T08:13:26;8.40;99.90
11666;DHT22;5889;51.350;6.708;2023-04-25T08:15:53;8.40;99.90
11666;DHT22;5889;51.350;6.708;2023-04-25T08:36:28;9.00;99.90
11666;DHT22;5889;51.350;6.708;2023-04-25T08:38:56;9.10;99.90
11666;DHT22;5889;51.350;6.708;2023-04-25T08:41:27;9.30;99.90
11666;DHT22;5889;51.350;6.708;2023-04-25T08:43:55;9.20;99.90
11666;DHT22;5889;51.350;6.708;2023-04-25T08:46:23;9.30;99.90
11666;DHT22;5889;51.350;6.708;2023-04-25T08:48:52;9.30;99.90
11666;DHT22;5889;51.350;6.708;2023-04-25T08:51:22;9.20;99.90
11666;DHT22;5889;51.350;6.708;2023-04-25T08:53:54;9.20;99.90
11666;DHT22;5889;51.350;6.708;2023-04-25T08:56:33;8.90;99.90
11666;DHT22;5889;51.350;6.708;2023-04-25T08:59:16;8.80;99.90
11666;DHT22;5889;51.350;6.708;2023-04-25T09:01:46;8.80;99.90
11666;DHT22;5889;51.350;6.708;2023-04-25T09:47:31;9.60;99.90
11666;DHT22;5889;51.350;6.708;2023-04-25T09:50:24;9.50;99.90
11666;DHT22;5889;51.350;6.708;2023-04-25T09:53:04;9.50;99.90
11666;DHT22;5889;51.350;6.708;2023-04-25T09:55:34;9.40;99.90
11666;DHT22;5889;51.350;6.708;2023-04-25T09:58:05;9.40;99.90
11666;DHT22;5889;51.350;6.708;2023-04-25T10:00:40;9.50;99.90
11666;DHT22;5889;51.350;6.708;2023-04-25T10:06:30;9.70;99.90
11666;DHT22;5889;51.350;6.708;2023-04-25T10:08:58;9.70;99.90
11666;DHT22;5889;51.350;6.708;2023-04-25T10:11:38;9.90;99.90
11666;DHT22;5889;51.350;6.708;2023-04-25T10:14:09;9.90;99.90
11666;DHT22;5889;51.350;6.708;2023-04-25T10:16:42;9.80;99.90
11666;DHT22;5889;51.350;6.708;2023-04-25T10:19:21;9.80;99.90
11666;DHT22;5889;51.350;6.708;2023-04-25T10:22:08;9.80;99.90
11666;DHT22;5889;51.350;6.708;2023-04-25T10:24:35;9.90;99.90
11666;DHT22;5889;51.350;6.708;2023-04-25T10:27:02;10.20;99.90
11666;DHT22;5889;51.350;6.708;2023-04-25T10:29:29;10.40;99.90
11666;DHT22;5889;51.350;6.708;2023-04-25T10:31:57;10.60;98.30
11666;DHT22;5889;51.350;6.708;2023-04-25T10:34:38;10.70;98.30
11666;DHT22;5889;51.350;6.708;2023-04-25T10:37:05;10.50;98.80
11666;DHT22;5889;51.350;6.708;2023-04-25T10:39:35;10.40;98.60
11666;DHT22;5889;51.350;6.708;2023-04-25T10:42:02;10.30;99.80
11666;DHT22;5889;51.350;6.708;2023-04-25T10:44:30;10.20;99.90
11666;DHT22;5889;51.350;6.708;2023-04-25T10:46:57;9.90;99.90
11666;DHT22;5889;51.350;6.708;2023-04-25T10:49:33;9.90;99.90
11666;DHT22;5889;51.350;6.708;2023-04-25T10:52:16;9.90;99.60
11666;DHT22;5889;51.350;6.708;2023-04-25T10:54:46;9.90;99.90
11666;DHT22;5889;51.350;6.708;2023-04-25T10:57:36;10.10;99.90
11666;DHT22;5889;51.350;6.708;2023-04-25T11:00:09;10.30;99.90
11666;DHT22;5889;51.350;6.708;2023-04-25T11:02:46;10.50;99.90
11666;DHT22;5889;51.350;6.708;2023-04-25T11:05:21;10.60;99.90
11666;DHT22;5889;51.350;6.708;2023-04-25T11:07:52;10.70;99.60
11666;DHT22;5889;51.350;6.708;2023-04-25T11:10:25;10.70;99.90
11666;DHT22;5889;51.350;6.708;2023-04-25T11:12:52;10.80;98.80
11666;DHT22;5889;51.350;6.708;2023-04-25T11:15:24;10.90;98.80
11666;DHT22;5889;51.350;6.708;2023-04-25T11:17:52;10.70;99.90
11666;DHT22;5889;51.350;6.708;2023-04-25T11:20:20;10.90;99.90
11666;DHT22;5889;51.350;6.708;2023-04-25T11:22:47;11.10;98.90
11666;DHT22;5889;51.350;6.708;2023-04-25T11:25:15;11.20;99.40
11666;DHT22;5889;51.350;6.708;2023-04-25T11:27:52;11.40;99.70
11666;DHT22;5889;51.350;6.708;2023-04-25T11:34:06;10.70;99.90
11666;DHT22;5889;51.350;6.708;2023-04-25T12:04:43;8.60;99.90
11666;DHT22;5889;51.350;6.708;2023-04-25T12:07:19;8.40;99.90
11666;DHT22;5889;51.350;6.708;2023-04-25T12:16:30;8.40;99.90
11666;DHT22;5889;51.350;6.708;2023-04-25T12:19:14;8.60;99.90
11666;DHT22;5889;51.350;6.708;2023-04-25T12:29:27;9.00;99.90
11666;DHT22;5889;51.350;6.708;2023-04-25T12:32:00;9.20;99.90
11666;DHT22;5889;51.350;6.708;2023-04-25T12:35:12;9.40;99.90
11666;DHT22;5889;51.350;6.708;2023-04-25T12:38:12;9.70;99.90
11666;DHT22;5889;51.350;6.708;2023-04-25T12:41:27;10.00;99.90
11666;DHT22;5889;51.350;6.708;2023-04-25T12:44:21;10.20;99.90
11666;DHT22;5889;51.350;6.708;2023-04-25T12:47:04;10.50;99.90
11666;DHT22;5889;51.350;6.708;2023-04-25T12:53:12;10.30;99.90
11666;DHT22;5889;51.350;6.708;2023-04-25T12:55:42;10.20;99.90
11666;DHT22;5889;51.350;6.708;2023-04-25T12:58:13;10.20;99.90
11666;DHT22;5889;51.350;6.708;2023-04-25T13:00:40;10.20;99.90
11666;DHT22;5889;51.350;6.708;2023-04-25T13:03:08;10.20;99.90
11666;DHT22;5889;51.350;6.708;2023-04-25T13:05:35;10.10;99.90
11666;DHT22;5889;51.350;6.708;2023-04-25T13:08:03;10.20;99.90
11666;DHT22;5889;51.350;6.708;2023-04-25T13:10:30;10.50;99.90
11666;DHT22;5889;51.350;6.708;2023-04-25T13:12:59;10.90;99.90
11666;DHT22;5889;51.350;6.708;2023-04-25T13:15:30;10.90;99.90
11666;DHT22;5889;51.350;6.708;2023-04-25T13:17:59;11.00;99.90
11666;DHT22;5889;51.350;6.708;2023-04-25T13:20:27;11.20;99.90
11666;DHT22;5889;51.350;6.708;2023-04-25T13:22:54;11.40;99.90
11666;DHT22;5889;51.350;6.708;2023-04-25T13:25:21;11.60;99.90
11666;DHT22;5889;51.350;6.708;2023-04-25T13:27:49;11.40;99.90
11666;DHT22;5889;51.350;6.708;2023-04-25T13:30:19;11.30;99.90
11666;DHT22;5889;51.350;6.708;2023-04-25T13:32:47;10.90;99.60
11666;DHT22;5889;51.350;6.708;2023-04-25T13:37:50;11.10;99.90
11666;DHT22;5889;51.350;6.708;2023-04-25T13:40:17;11.10;99.90
11666;DHT22;5889;51.350;6.708;2023-04-25T13:42:44;11.00;99.90
11666;DHT22;5889;51.350;6.708;2023-04-25T13:45:11;10.70;99.90
11666;DHT22;5889;51.350;6.708;2023-04-25T13:50:56;10.40;99.90
11666;DHT22;5889;51.350;6.708;2023-04-25T13:53:23;10.30;99.90
11666;DHT22;5889;51.350;6.708;2023-04-25T14:01:04;10.60;99.90
11666;DHT22;5889;51.350;6.708;2023-04-25T14:03:34;11.20;99.90
11666;DHT22;5889;51.350;6.708;2023-04-25T14:06:03;11.10;99.00
11666;DHT22;5889;51.350;6.708;2023-04-25T14:08:35;11.00;99.90
11666;DHT22;5889;51.350;6.708;2023-04-25T14:11:02;11.10;99.70
11666;DHT22;5889;51.350;6.708;2023-04-25T14:13:57;11.00;99.40
11666;DHT22;5889;51.350;6.708;2023-04-25T14:19:29;10.60;99.90
11666;DHT22;5889;51.350;6.708;2023-04-25T14:21:57;10.50;99.90
11666;DHT22;5889;51.350;6.708;2023-04-25T14:24:24;10.40;99.90
11666;DHT22;5889;51.350;6.708;2023-04-25T14:26:51;10.30;99.90
11666;DHT22;5889;51.350;6.708;2023-04-25T14:29:18;10.50;99.90
11666;DHT22;5889;51.350;6.708;2023-04-25T14:31:45;10.60;99.90
11666;DHT22;5889;51.350;6.708;2023-04-25T14:34:13;10.60;99.50
11666;DHT22;5889;51.350;6.708;2023-04-25T14:36:40;10.80;99.30
11666;DHT22;5889;51.350;6.708;2023-04-25T14:39:09;10.90;98.00
11666;DHT22;5889;51.350;6.708;2023-04-25T14:41:36;11.00;98.40
11666;DHT22;5889;51.350;6.708;2023-04-25T14:44:04;11.00;99.60
11666;DHT22;5889;51.350;6.708;2023-04-25T14:46:31;10.90;99.50
11666;DHT22;5889;51.350;6.708;2023-04-25T14:48:58;10.90;99.30
11666;DHT22;5889;51.350;6.708;2023-04-25T14:51:26;11.10;98.00
11666;DHT22;5889;51.350;6.708;2023-04-25T14:53:53;11.30;98.40
11666;DHT22;5889;51.350;6.708;2023-04-25T14:56:22;11.30;97.30
11666;DHT22;5889;51.350;6.708;2023-04-25T14:58:49;11.10;98.90
11666;DHT22;5889;51.350;6.708;2023-04-25T15:01:17;10.60;99.10
11666;DHT22;5889;51.350;6.708;2023-04-25T15:03:46;10.50;99.70
11666;DHT22;5889;51.350;6.708;2023-04-25T15:06:13;10.20;99.80
11666;DHT22;5889;51.350;6.708;2023-04-25T15:08:40;10.00;99.90
11666;DHT22;5889;51.350;6.708;2023-04-25T15:11:11;10.00;99.90
11666;DHT22;5889;51.350;6.708;2023-04-25T15:13:39;10.00;99.90
11666;DHT22;5889;51.350;6.708;2023-04-25T15:16:06;9.90;99.90
11666;DHT22;5889;51.350;6.708;2023-04-25T15:18:33;10.00;99.90
11666;DHT22;5889;51.350;6.708;2023-04-25T15:21:00;10.10;99.90
11666;DHT22;5889;51.350;6.708;2023-04-25T15:23:28;10.20;99.90
11666;DHT22;5889;51.350;6.708;2023-04-25T15:25:57;10.30;99.90
11666;DHT22;5889;51.350;6.708;2023-04-25T15:28:25;10.40;99.90
11666;DHT22;5889;51.350;6.708;2023-04-25T15:30:56;10.50;99.90
11666;DHT22;5889;51.350;6.708;2023-04-25T15:33:23;10.40;99.90
11666;DHT22;5889;51.350;6.708;2023-04-25T15:35:50;10.30;99.90
11666;DHT22;5889;51.350;6.708;2023-04-25T15:38:18;10.00;99.90
11666;DHT22;5889;51.350;6.708;2023-04-25T15:40:46;10.00;99.90
11666;DHT22;5889;51.350;6.708;2023-04-25T15:43:16;10.10;99.90
11666;DHT22;5889;51.350;6.708;2023-04-25T15:45:44;10.10;99.90
11666;DHT22;5889;51.350;6.708;2023-04-25T15:48:13;10.10;99.80
11666;DHT22;5889;51.350;6.708;2023-04-25T15:50:46;9.90;99.30
11666;DHT22;5889;51.350;6.708;2023-04-25T15:53:19;9.90;99.00
11666;DHT22;5889;51.350;6.708;2023-04-25T15:55:58;9.90;99.50
11666;DHT22;5889;51.350;6.708;2023-04-25T15:58:28;9.80;99.90
11666;DHT22;5889;51.350;6.708;2023-04-25T16:00:56;9.80;99.90
11666;DHT22;5889;51.350;6.708;2023-04-25T16:03:25;9.90;99.90
11666;DHT22;5889;51.350;6.708;2023-04-25T16:05:59;9.90;99.80
11666;DHT22;5889;51.350;6.708;2023-04-25T16:08:30;9.90;99.10
11666;DHT22;5889;51.350;6.708;2023-04-25T16:11:09;9.80;99.60
11666;DHT22;5889;51.350;6.708;2023-04-25T16:13:55;9.80;99.90
11666;DHT22;5889;51.350;6.708;2023-04-25T16:16:26;9.80;99.40
11666;DHT22;5889;51.350;6.708;2023-04-25T16:36:08;9.60;98.30
11666;DHT22;5889;51.350;6.708;2023-04-25T16:38:39;9.70;99.20
11666;DHT22;5889;51.350;6.708;2023-04-25T16:41:07;9.80;98.70
11666;DHT22;5889;51.350;6.708;2023-04-25T16:43:34;9.90;99.80
11666;DHT22;5889;51.350;6.708;2023-04-25T16:46:04;10.10;98.50
11666;DHT22;5889;51.350;6.708;2023-04-25T16:48:35;10.00;98.40
11666;DHT22;5889;51.350;6.708;2023-04-25T16:51:04;9.90;98.80
11666;DHT22;5889;51.350;6.708;2023-04-25T16:53:31;9.70;99.40
11666;DHT22;5889;51.350;6.708;2023-04-25T16:55:58;9.60;98.90
11666;DHT22;5889;51.350;6.708;2023-04-25T16:58:25;9.50;98.30
11666;DHT22;5889;51.350;6.708;2023-04-25T17:00:53;9.40;99.00
11666;DHT22;5889;51.350;6.708;2023-04-25T17:03:24;9.20;98.60
11666;DHT22;5889;51.350;6.708;2023-04-25T17:05:55;9.20;99.00
11666;DHT22;5889;51.350;6.708;2023-04-25T17:08:30;9.20;99.90
11666;DHT22;5889;51.350;6.708;2023-04-25T17:10:59;9.10;99.60
11666;DHT22;5889;51.350;6.708;2023-04-25T17:13:30;9.10;99.20
11666;DHT22;5889;51.350;6.708;2023-04-25T17:15:59;9.10;99.80
11666;DHT22;5889;51.350;6.708;2023-04-25T17:18:26;9.20;99.90
11666;DHT22;5889;51.350;6.708;2023-04-25T17:20:54;9.30;99.90
11666;DHT22;5889;51.350;6.708;2023-04-25T17:23:23;9.30;99.90
11666;DHT22;5889;51.350;6.708;2023-04-25T17:25:56;9.30;99.90
11666;DHT22;5889;51.350;6.708;2023-04-25T17:28:23;9.30;99.90
11666;DHT22;5889;51.350;6.708;2023-04-25T17:30:50;9.40;99.90
11666;DHT22;5889;51.350;6.708;2023-04-25T17:33:21;9.60;99.10
11666;DHT22;5889;51.350;6.708;2023-04-25T17:35:51;9.80;99.40
11666;DHT22;5889;51.350;6.708;2023-04-25T17:38:18;9.80;99.60
11666;DHT22;5889;51.350;6.708;2023-04-25T17:40:46;9.80;99.70
11666;DHT22;5889;51.350;6.708;2023-04-25T17:43:14;9.90;98.80
11666;DHT22;5889;51.350;6.708;2023-04-25T17:45:41;9.80;99.90
11666;DHT22;5889;51.350;6.708;2023-04-25T17:48:08;10.10;99.90
11666;DHT22;5889;51.350;6.708;2023-04-25T17:50:35;10.20;99.50
11666;DHT22;5889;51.350;6.708;2023-04-25T17:53:02;9.90;98.80
11666;DHT22;5889;51.350;6.708;2023-04-25T17:55:29;9.60;97.80
11666;DHT22;5889;51.350;6.708;2023-04-25T17:57:56;9.40;99.20
11666;DHT22;5889;51.350;6.708;2023-04-25T18:00:24;9.20;99.20
11666;DHT22;5889;51.350;6.708;2023-04-25T18:02:52;9.10;98.70
11666;DHT22;5889;51.350;6.708;2023-04-25T18:05:19;9.00;99.70
11666;DHT22;5889;51.350;6.708;2023-04-25T18:07:46;8.90;99.10
11666;DHT22;5889;51.350;6.708;2023-04-25T18:10:13;8.90;99.30
11666;DHT22;5889;51.350;6.708;2023-04-25T18:12:40;8.80;99.20
11666;DHT22;5889;51.350;6.708;2023-04-25T18:15:08;8.80;99.50
11666;DHT22;5889;51.350;6.708;2023-04-25T18:17:37;8.70;99.60
11666;DHT22;5889;51.350;6.708;2023-04-25T18:20:06;8.70;99.90
11666;DHT22;5889;51.350;6.708;2023-04-25T18:22:36;8.80;99.50
11666;DHT22;5889;51.350;6.708;2023-04-25T18:25:03;9.00;99.90
11666;DHT22;5889;51.350;6.708;2023-04-25T18:27:32;9.00;99.80
11666;DHT22;5889;51.350;6.708;2023-04-25T18:29:59;8.90;99.90
11666;DHT22;5889;51.350;6.708;2023-04-25T18:32:26;8.80;99.90
11666;DHT22;5889;51.350;6.708;2023-04-25T18:34:55;8.70;99.90
11666;DHT22;5889;51.350;6.708;2023-04-25T18:37:22;8.60;99.90
11666;DHT22;5889;51.350;6.708;2023-04-25T18:39:49;8.60;99.90
11666;DHT22;5889;51.350;6.708;2023-04-25T18:42:19;8.50;99.90
11666;DHT22;5889;51.350;6.708;2023-04-25T18:44:46;8.40;99.90
11666;DHT22;5889;51.350;6.708;2023-04-25T18:47:13;8.30;99.90
11666;DHT22;5889;51.350;6.708;2023-04-25T18:49:40;8.20;99.90
11666;DHT22;5889;51.350;6.708;2023-04-25T18:52:08;8.10;99.90
11666;DHT22;5889;51.350;6.708;2023-04-25T18:54:37;8.00;99.90
11666;DHT22;5889;51.350;6.708;2023-04-25T18:57:04;8.00;99.90
11666;DHT22;5889;51.350;6.708;2023-04-25T18:59:31;8.00;99.90
11666;DHT22;5889;51.350;6.708;2023-04-25T19:01:58;8.00;99.90
11666;DHT22;5889;51.350;6.708;2023-04-25T19:04:26;7.90;99.90
11666;DHT22;5889;51.350;6.708;2023-04-25T19:06:53;7.90;99.90
11666;DHT22;5889;51.350;6.708;2023-04-25T19:09:22;7.80;99.90
11666;DHT22;5889;51.350;6.708;2023-04-25T19:11:49;7.80;99.90
11666;DHT22;5889;51.350;6.708;2023-04-25T19:14:16;7.80;99.90
11666;DHT22;5889;51.350;6.708;2023-04-25T19:16:43;7.70;99.90
11666;DHT22;5889;51.350;6.708;2023-04-25T19:19:10;7.70;99.90
11666;DHT22;5889;51.350;6.708;2023-04-25T19:21:37;7.60;99.90
11666;DHT22;5889;51.350;6.708;2023-04-25T19:24:06;7.60;99.90
11666;DHT22;5889;51.350;6.708;2023-04-25T19:26:34;7.50;99.90
11666;DHT22;5889;51.350;6.708;2023-04-25T19:29:03;7.40;99.90
11666;DHT22;5889;51.350;6.708;2023-04-25T19:31:30;7.40;99.90
11666;DHT22;5889;51.350;6.708;2023-04-25T19:33:57;7.30;99.90
11666;DHT22;5889;51.350;6.708;2023-04-25T19:36:24;7.20;99.90